Time;durP1;ratioP1;P1;durP2;ratioP2;P2;SDS_P1;SDS_P2;PMS_P1;PMS_P2;Temp;Humidity;BMP_temperature;BMP_pressure;BME280_temperature;BME280_humidity;BME280_pressure;Samples;Min_cycle;Max_cycle;Signal;HPM_P1;HPM_P2
2023/08/26 00:00:32;;;;;;;6.90;6.30;;;32.90;99.90;;;;;;4994033;28;20022;-46
2023/08/26 00:02:57;;;;;;;9.48;7.30;;;32.90;99.90;;;;;;4994905;28;20030;-47
2023/08/26 00:05:23;;;;;;;7.50;6.70;;;32.90;99.90;;;;;;4995118;28;20023;-47
2023/08/26 00:07:49;;;;;;;8.68;6.50;;;32.80;99.90;;;;;;4994809;28;20073;-47
2023/08/26 00:10:15;;;;;;;7.70;6.90;;;32.90;99.90;;;;;;4994839;28;20031;-48
2023/08/26 00:12:40;;;;;;;8.48;7.63;;;32.80;99.90;;;;;;4994701;28;20166;-48
2023/08/26 00:15:06;;;;;;;8.07;7.18;;;32.80;99.90;;;;;;4994564;28;20037;-47
2023/08/26 00:17:33;;;;;;;9.35;7.80;;;32.90;99.90;;;;;;4994523;28;20102;-48
2023/08/26 00:19:58;;;;;;;8.60;7.53;;;32.90;99.90;;;;;;4994616;28;20029;-47
2023/08/26 00:22:24;;;;;;;8.35;7.05;;;32.80;99.90;;;;;;4994654;28;20030;-48
2023/08/26 00:24:51;;;;;;;8.23;6.97;;;32.80;99.90;;;;;;4994439;28;20101;-47
2023/08/26 00:27:17;;;;;;;10.57;8.10;;;32.80;99.90;;;;;;4994411;28;20027;-47
2023/08/26 00:29:42;;;;;;;8.50;7.60;;;32.80;99.90;;;;;;4994324;28;20053;-48
2023/08/26 00:32:08;;;;;;;8.05;7.25;;;32.80;99.90;;;;;;4994356;28;20371;-47
2023/08/26 00:34:34;;;;;;;8.15;6.80;;;32.80;99.90;;;;;;4994119;28;20034;-47
2023/08/26 00:37:00;;;;;;;8.27;7.47;;;32.80;99.90;;;;;;4994268;28;20105;-47
2023/08/26 00:39:26;;;;;;;9.02;8.13;;;32.80;99.90;;;;;;4993594;28;20379;-47
2023/08/26 00:41:51;;;;;;;8.77;7.38;;;32.80;99.90;;;;;;4994187;28;20058;-47
2023/08/26 00:44:17;;;;;;;8.40;7.50;;;32.80;99.90;;;;;;4992771;28;20026;-47
2023/08/26 00:46:43;;;;;;;10.30;8.45;;;32.80;99.90;;;;;;4993886;28;20018;-47
2023/08/26 00:49:09;;;;;;;9.32;7.53;;;32.70;99.90;;;;;;4993834;28;20118;-47
2023/08/26 00:51:36;;;;;;;8.48;7.20;;;32.80;99.90;;;;;;4993727;28;20058;-47
2023/08/26 00:54:04;;;;;;;8.57;7.68;;;32.70;99.90;;;;;;4993809;28;20050;-47
2023/08/26 00:56:29;;;;;;;;;;;32.70;99.90;;;;;;4994533;28;20022;-47
2023/08/26 00:58:55;;;;;;;10.05;7.82;;;32.70;99.90;;;;;;4993887;28;19910;-47
2023/08/26 01:01:24;;;;;;;9.20;8.23;;;32.70;99.90;;;;;;4994122;28;20511;-48
2023/08/26 01:03:50;;;;;;;8.82;7.93;;;32.70;99.90;;;;;;4993503;28;20037;-54
2023/08/26 01:06:16;;;;;;;8.57;7.43;;;32.70;99.90;;;;;;4993656;28;20023;-48
2023/08/26 01:08:42;;;;;;;9.35;8.20;;;32.70;99.90;;;;;;4993562;28;20117;-48
2023/08/26 01:11:54;;;;;;;10.32;8.70;;;32.70;99.90;;;;;;4993576;28;20444;-47
2023/08/26 01:14:37;;;;;;;8.45;7.53;;;32.70;99.90;;;;;;4985038;28;20042;-47
2023/08/26 01:17:07;;;;;;;9.20;8.02;;;32.60;99.90;;;;;;4992303;28;20023;-48
2023/08/26 01:19:40;;;;;;;8.75;7.85;;;32.70;99.90;;;;;;4993661;28;20435;-48
2023/08/26 01:22:08;;;;;;;8.82;7.82;;;32.70;99.90;;;;;;4992226;28;20022;-48
2023/08/26 01:24:35;;;;;;;9.52;8.15;;;32.70;99.90;;;;;;4993286;28;20105;-48
2023/08/26 01:27:01;;;;;;;;;;;32.70;99.90;;;;;;4993819;28;20038;-48
2023/08/26 01:29:27;;;;;;;9.10;8.20;;;32.60;99.90;;;;;;4993240;28;19921;-48
2023/08/26 01:32:33;;;;;;;8.80;7.90;;;32.60;99.90;;;;;;4992968;28;20061;-48
2023/08/26 01:35:02;;;;;;;9.15;8.25;;;32.60;99.90;;;;;;4977917;28;20030;-48
2023/08/26 01:37:29;;;;;;;9.80;8.80;;;32.60;99.90;;;;;;4993367;28;20023;-48
2023/08/26 01:39:58;;;;;;;9.43;8.40;;;32.60;99.90;;;;;;4991910;28;20549;-48
2023/08/26 01:42:26;;;;;;;8.95;8.15;;;32.60;99.90;;;;;;4992858;28;20026;-47
2023/08/26 01:44:52;;;;;;;10.45;8.75;;;32.60;99.90;;;;;;4993162;28;20065;-50
2023/08/26 01:47:18;;;;;;;9.88;8.82;;;32.60;99.90;;;;;;4993104;28;20018;-48
2023/08/26 01:49:44;;;;;;;10.30;9.23;;;32.60;99.90;;;;;;4992963;28;20038;-48
2023/08/26 01:52:10;;;;;;;10.88;9.30;;;32.60;99.90;;;;;;4992953;28;20018;-47
2023/08/26 01:54:36;;;;;;;11.70;10.35;;;32.60;99.90;;;;;;4992809;28;20066;-47
2023/08/26 01:57:02;;;;;;;11.82;10.45;;;32.60;99.90;;;;;;4992998;28;20053;-47
2023/08/26 01:59:28;;;;;;;15.05;12.38;;;32.60;99.90;;;;;;4991792;28;20026;-47
2023/08/26 02:01:53;;;;;;;13.43;11.93;;;32.60;99.90;;;;;;5004738;23;20054;-55
2023/08/26 02:04:22;;;;;;;16.25;13.43;;;32.50;99.90;;;;;;4991624;28;20491;-55
2023/08/26 02:06:48;;;;;;;15.98;13.23;;;32.50;99.90;;;;;;4991577;28;20467;-56
2023/08/26 02:09:14;;;;;;;14.57;13.00;;;32.50;99.90;;;;;;4992601;28;20045;-54
2023/08/26 02:11:40;;;;;;;16.48;14.00;;;32.50;99.90;;;;;;4992755;28;20027;-55
2023/08/26 02:14:05;;;;;;;15.38;13.55;;;32.50;99.90;;;;;;4992849;28;20038;-54
2023/08/26 02:16:31;;;;;;;18.02;14.43;;;32.50;99.90;;;;;;4991829;28;20039;-54
2023/08/26 02:18:57;;;;;;;15.60;13.85;;;32.50;99.90;;;;;;4991603;28;20112;-55
2023/08/26 02:21:23;;;;;;;14.73;13.13;;;32.50;99.90;;;;;;4992685;28;20532;-53
2023/08/26 02:23:48;;;;;;;18.63;14.45;;;32.50;99.90;;;;;;4992714;28;20166;-54
2023/08/26 02:26:14;;;;;;;18.55;14.05;;;32.50;99.90;;;;;;4992628;28;20062;-54
2023/08/26 02:28:40;;;;;;;18.00;14.55;;;32.50;99.90;;;;;;4992599;28;20047;-54
2023/08/26 02:31:06;;;;;;;17.00;14.25;;;32.50;99.90;;;;;;4992636;28;20030;-54
2023/08/26 02:33:32;;;;;;;17.98;15.43;;;32.50;99.90;;;;;;4992928;28;20080;-54
2023/08/26 02:35:58;;;;;;;17.50;15.65;;;32.50;99.90;;;;;;4992692;28;20022;-56
2023/08/26 02:38:25;;;;;;;21.67;16.70;;;32.50;99.90;;;;;;4992562;28;20548;-54
2023/08/26 02:40:54;;;;;;;19.60;17.20;;;32.50;99.90;;;;;;4992385;28;20028;-54
2023/08/26 02:43:21;;;;;;;17.90;16.00;;;32.50;99.90;;;;;;4992631;28;20160;-54
2023/08/26 02:45:54;;;;;;;17.88;15.88;;;32.50;99.90;;;;;;4992418;28;20027;-54
2023/08/26 02:48:25;;;;;;;19.58;17.48;;;32.50;99.90;;;;;;4992483;28;20034;-55
2023/08/26 02:50:56;;;;;;;21.30;17.08;;;32.40;99.90;;;;;;4992545;28;20026;-55
2023/08/26 02:53:24;;;;;;;22.00;17.98;;;32.40;99.90;;;;;;4992355;28;20030;-55
2023/08/26 02:55:49;;;;;;;21.50;18.10;;;32.40;99.90;;;;;;4992407;28;20026;-55
2023/08/26 02:58:15;;;;;;;24.52;18.83;;;32.40;99.90;;;;;;4992441;28;20026;-56
2023/08/26 03:00:41;;;;;;;22.85;19.98;;;32.40;99.90;;;;;;4992607;28;20150;-55
2023/08/26 03:03:07;;;;;;;23.17;19.83;;;32.40;99.90;;;;;;4994029;28;20074;-55
2023/08/26 03:05:34;;;;;;;24.17;20.77;;;32.40;99.90;;;;;;4994939;28;20113;-55
2023/08/26 03:08:00;;;;;;;26.10;20.88;;;32.40;99.90;;;;;;4995696;28;20030;-55
2023/08/26 03:10:26;;;;;;;24.45;20.67;;;32.40;99.90;;;;;;4995670;28;20032;-55
2023/08/26 03:12:53;;;;;;;24.45;20.48;;;32.40;99.90;;;;;;4995554;28;20096;-54
2023/08/26 03:15:19;;;;;;;24.45;20.60;;;32.40;99.90;;;;;;4995620;28;20036;-55
2023/08/26 03:17:45;;;;;;;23.27;20.52;;;32.40;99.90;;;;;;4995657;28;20109;-55
2023/08/26 03:20:11;;;;;;;26.38;21.27;;;32.40;99.90;;;;;;4994390;28;20033;-54
2023/08/26 03:22:37;;;;;;;25.98;20.85;;;32.40;99.90;;;;;;4995513;28;20026;-55
2023/08/26 03:25:04;;;;;;;24.85;21.67;;;32.40;99.90;;;;;;4995821;28;20096;-55
2023/08/26 03:27:30;;;;;;;26.05;22.20;;;32.40;99.90;;;;;;5010542;28;20022;-55
2023/08/26 03:29:56;;;;;;;26.05;21.73;;;32.40;99.90;;;;;;4995357;28;20042;-53
2023/08/26 03:32:22;;;;;;;26.98;21.02;;;32.40;99.90;;;;;;4995651;28;20018;-55
2023/08/26 03:34:48;;;;;;;27.45;21.85;;;32.30;99.90;;;;;;4994037;28;20100;-55
2023/08/26 03:37:14;;;;;;;24.65;20.08;;;32.30;99.90;;;;;;4995298;28;20065;-56
2023/08/26 03:39:40;;;;;;;26.20;22.42;;;32.30;99.90;;;;;;4993884;28;20030;-55
2023/08/26 03:42:06;;;;;;;26.52;22.30;;;32.30;99.90;;;;;;4995477;28;20109;-56
2023/08/26 03:44:31;;;;;;;23.55;20.65;;;32.30;99.90;;;;;;4995194;28;20154;-55
2023/08/26 03:46:57;;;;;;;24.83;20.90;;;32.30;99.90;;;;;;4995147;28;20022;-55
2023/08/26 03:49:23;;;;;;;24.08;20.60;;;32.30;99.90;;;;;;4995111;28;20034;-55
2023/08/26 03:51:49;;;;;;;25.67;21.73;;;32.30;99.90;;;;;;4995016;28;20033;-56
2023/08/26 03:54:14;;;;;;;24.58;21.63;;;32.30;99.90;;;;;;4993920;28;20124;-55
2023/08/26 03:56:40;;;;;;;24.65;20.90;;;32.30;99.90;;;;;;4994982;28;20076;-55
2023/08/26 03:59:07;;;;;;;27.35;22.25;;;32.20;99.90;;;;;;4993960;28;20041;-55
2023/08/26 04:01:33;;;;;;;;;;;32.30;99.90;;;;;;4995736;28;20066;-55
2023/08/26 04:03:59;;;;;;;25.13;20.60;;;32.20;99.90;;;;;;4994836;28;19918;-55
2023/08/26 04:06:24;;;;;;;25.33;21.60;;;32.20;99.90;;;;;;4994749;28;20026;-55
2023/08/26 04:08:50;;;;;;;27.63;23.00;;;32.20;99.90;;;;;;4993528;28;20031;-56
2023/08/26 04:11:17;;;;;;;28.25;22.10;;;32.20;99.90;;;;;;4994811;28;20061;-55
2023/08/26 04:13:45;;;;;;;26.83;22.55;;;32.20;99.90;;;;;;4993986;28;20033;-55
2023/08/26 04:16:11;;;;;;;25.65;22.05;;;32.20;99.90;;;;;;4994265;28;20173;-55
2023/08/26 04:18:37;;;;;;;24.15;21.27;;;32.20;99.90;;;;;;4993713;28;20538;-56
2023/08/26 04:21:03;;;;;;;26.65;22.50;;;32.20;99.90;;;;;;4994515;28;20057;-55
2023/08/26 04:23:30;;;;;;;26.50;22.05;;;32.20;99.90;;;;;;4994492;28;20072;-54
2023/08/26 04:26:05;;;;;;;;;;;32.20;99.90;;;;;;4994799;28;20030;-53
2023/08/26 04:28:31;;;;;;;24.35;20.58;;;32.20;99.90;;;;;;4994252;28;19992;-53
2023/08/26 04:31:01;;;;;;;25.25;21.23;;;32.20;99.90;;;;;;4994205;28;20030;-54
2023/08/26 04:33:27;;;;;;;23.15;20.25;;;32.20;99.90;;;;;;4994143;28;20118;-54
2023/08/26 04:35:53;;;;;;;26.05;21.17;;;32.20;99.90;;;;;;4994282;28;20036;-54
2023/08/26 04:38:18;;;;;;;24.55;20.33;;;32.10;99.90;;;;;;4994122;28;20169;-54
2023/08/26 04:40:45;;;;;;;25.42;22.30;;;32.10;99.90;;;;;;4993995;28;20026;-54
2023/08/26 04:43:11;;;;;;;24.73;19.83;;;32.20;99.90;;;;;;4994306;28;20030;-54
2023/08/26 04:45:40;;;;;;;25.80;20.83;;;32.20;99.90;;;;;;4993997;28;20501;-54
2023/08/26 04:48:07;;;;;;;24.75;20.77;;;32.10;99.90;;;;;;4994214;28;20088;-55
2023/08/26 04:50:34;;;;;;;26.90;21.95;;;32.10;99.90;;;;;;4994062;28;20034;-55
2023/08/26 04:53:00;;;;;;;24.10;21.27;;;32.10;99.90;;;;;;4993962;28;20030;-54
2023/08/26 04:55:26;;;;;;;24.08;20.08;;;32.10;99.90;;;;;;4993830;28;20030;-54
2023/08/26 04:57:53;;;;;;;25.15;21.33;;;32.10;99.90;;;;;;4993712;28;20065;-54
2023/08/26 05:00:18;;;;;;;24.33;20.63;;;32.10;99.90;;;;;;4992508;28;20076;-54
2023/08/26 05:02:44;;;;;;;23.75;19.88;;;32.10;99.90;;;;;;4993704;28;20121;-55
2023/08/26 05:05:10;;;;;;;26.13;20.95;;;32.10;99.90;;;;;;4992755;28;20093;-55
2023/08/26 05:07:36;;;;;;;25.15;20.48;;;32.10;99.90;;;;;;4992367;28;20081;-53
2023/08/26 05:10:03;;;;;;;21.55;19.17;;;32.10;99.90;;;;;;4993539;28;20382;-55
2023/08/26 05:12:30;;;;;;;22.95;19.17;;;32.10;99.90;;;;;;4993585;28;20030;-55
2023/08/26 05:14:56;;;;;;;26.30;19.50;;;32.10;99.90;;;;;;4993554;28;20383;-55
2023/08/26 05:17:22;;;;;;;23.83;19.08;;;32.10;99.90;;;;;;4993502;28;20536;-54
2023/08/26 05:19:48;;;;;;;23.88;19.52;;;32.10;99.90;;;;;;4993542;28;20028;-55
2023/08/26 05:22:14;;;;;;;21.50;18.65;;;32.00;99.90;;;;;;4993312;28;20022;-54
2023/08/26 05:24:39;;;;;;;23.58;19.63;;;32.10;99.90;;;;;;4993654;28;20061;-55
2023/08/26 05:27:05;;;;;;;24.00;18.40;;;32.10;99.90;;;;;;4993127;28;20054;-56
2023/08/26 05:29:31;;;;;;;20.65;18.20;;;32.00;99.90;;;;;;4993103;28;20387;-55
2023/08/26 05:31:57;;;;;;;22.30;18.35;;;32.00;99.90;;;;;;4992063;28;20030;-55
2023/08/26 05:34:23;;;;;;;21.15;17.75;;;32.00;99.90;;;;;;4993119;28;20124;-55
2023/08/26 05:36:49;;;;;;;21.80;18.05;;;32.00;99.90;;;;;;4993439;28;20491;-56
2023/08/26 05:39:14;;;;;;;21.98;18.75;;;32.00;99.90;;;;;;4993577;28;20093;-55
2023/08/26 05:41:40;;;;;;;19.67;17.52;;;32.00;99.90;;;;;;4993374;28;20018;-55
2023/08/26 05:44:06;;;;;;;20.52;17.65;;;32.00;99.90;;;;;;4993037;28;20023;-55
2023/08/26 05:46:32;;;;;;;19.88;17.48;;;32.00;99.90;;;;;;4993015;28;20014;-55
2023/08/26 05:48:58;;;;;;;19.92;17.70;;;32.00;99.90;;;;;;4993005;28;20156;-54
2023/08/26 05:51:24;;;;;;;20.75;16.52;;;31.90;99.90;;;;;;4993118;28;20133;-55
2023/08/26 05:53:50;;;;;;;22.42;17.73;;;32.00;99.90;;;;;;4992958;28;20022;-54
2023/08/26 05:56:16;;;;;;;19.33;17.30;;;31.90;99.90;;;;;;4992970;28;20034;-55
2023/08/26 05:58:42;;;;;;;21.92;17.98;;;32.00;99.90;;;;;;4991797;28;20019;-54
2023/08/26 06:01:07;;;;;;;20.75;17.60;;;32.00;99.90;;;;;;4991570;28;20540;-55
2023/08/26 06:03:33;;;;;;;18.90;16.38;;;32.00;99.90;;;;;;4992840;28;20026;-54
2023/08/26 06:05:59;;;;;;;18.80;16.63;;;32.00;99.90;;;;;;4992828;28;20042;-55
2023/08/26 06:08:25;;;;;;;21.65;16.98;;;31.90;99.90;;;;;;4992828;28;20037;-54
2023/08/26 06:10:55;;;;;;;24.92;16.25;;;31.90;99.90;;;;;;4992620;28;20058;-54
2023/08/26 06:13:20;;;;;;;18.30;16.30;;;31.90;99.90;;;;;;4991439;28;20022;-55
2023/08/26 06:15:53;;;;;;;19.83;16.52;;;31.90;99.90;;;;;;4992741;28;20052;-55
2023/08/26 06:18:19;;;;;;;18.25;15.90;;;31.90;99.90;;;;;;4992723;28;20109;-55
2023/08/26 06:20:45;;;;;;;17.10;15.35;;;31.90;99.90;;;;;;4993128;28;20122;-55
2023/08/26 06:23:11;;;;;;;17.92;15.98;;;31.90;99.90;;;;;;4992721;28;20046;-55
2023/08/26 06:25:36;;;;;;;19.25;16.13;;;31.90;99.90;;;;;;4992469;28;20069;-54
2023/08/26 06:28:02;;;;;;;20.48;16.70;;;31.90;99.90;;;;;;4991227;28;20034;-55
2023/08/26 06:30:28;;;;;;;18.85;16.85;;;31.90;99.90;;;;;;4992634;28;20066;-55
2023/08/26 06:32:54;;;;;;;19.65;17.55;;;31.90;99.90;;;;;;4992485;28;20031;-55
2023/08/26 06:35:24;;;;;;;20.77;18.58;;;31.90;99.90;;;;;;4992626;28;20022;-55
2023/08/26 06:37:50;;;;;;;19.83;17.65;;;31.90;99.90;;;;;;4994082;28;20022;-55
2023/08/26 06:40:15;;;;;;;21.73;19.33;;;31.90;99.90;;;;;;4996457;28;20033;-54
2023/08/26 06:42:41;;;;;;;21.90;19.60;;;31.90;99.90;;;;;;4996363;28;20022;-55
2023/08/26 06:45:07;;;;;;;22.35;20.02;;;31.90;99.90;;;;;;4996200;28;20022;-55
2023/08/26 06:47:33;;;;;;;22.33;20.02;;;31.90;99.90;;;;;;4996054;28;20487;-55
2023/08/26 06:49:59;;;;;;;23.55;19.63;;;31.90;99.90;;;;;;4995986;28;20058;-55
2023/08/26 06:52:27;;;;;;;22.50;20.05;;;31.90;99.90;;;;;;4994884;28;20026;-55
2023/08/26 06:54:53;;;;;;;21.60;18.48;;;31.90;99.90;;;;;;4996125;28;20054;-55
2023/08/26 06:57:19;;;;;;;22.05;19.75;;;31.90;99.90;;;;;;4996019;28;20152;-55
2023/08/26 06:59:44;;;;;;;23.42;20.98;;;31.90;99.90;;;;;;4996133;28;20026;-55
2023/08/26 07:02:10;;;;;;;22.13;19.35;;;31.90;99.90;;;;;;4995786;28;20133;-56
2023/08/26 07:04:36;;;;;;;22.48;20.08;;;31.90;99.90;;;;;;4995848;28;20018;-55
2023/08/26 07:07:02;;;;;;;23.88;21.30;;;32.00;99.90;;;;;;4995788;28;20031;-54
2023/08/26 07:09:28;;;;;;;22.30;19.85;;;32.00;99.90;;;;;;4995767;28;20178;-55
2023/08/26 07:11:53;;;;;;;24.88;22.17;;;31.90;99.90;;;;;;4995877;28;20500;-54
2023/08/26 07:14:19;;;;;;;27.83;24.27;;;32.00;99.90;;;;;;4995745;28;20052;-54
2023/08/26 07:16:45;;;;;;;21.63;18.70;;;32.00;99.90;;;;;;4995866;28;20111;-56
2023/08/26 07:19:11;;;;;;;23.90;21.48;;;32.00;99.90;;;;;;4995811;28;20084;-55
2023/08/26 07:21:37;;;;;;;21.02;18.80;;;32.00;99.90;;;;;;4995850;28;20042;-55
2023/08/26 07:24:03;;;;;;;22.63;20.20;;;31.90;99.90;;;;;;4995618;28;20536;-55
2023/08/26 07:26:29;;;;;;;23.10;19.90;;;32.00;99.90;;;;;;4994493;28;20153;-56
2023/08/26 07:28:55;;;;;;;26.10;22.52;;;32.00;99.90;;;;;;4994151;28;20125;-56
2023/08/26 07:31:20;;;;;;;20.15;18.05;;;32.00;99.90;;;;;;4995691;28;20085;-55
2023/08/26 07:33:46;;;;;;;20.17;18.05;;;32.00;99.90;;;;;;4995724;28;20390;-56
2023/08/26 07:36:12;;;;;;;19.73;17.73;;;32.00;99.90;;;;;;4994235;28;20424;-55
2023/08/26 07:38:38;;;;;;;26.25;23.02;;;32.00;99.90;;;;;;4995444;28;20057;-56
2023/08/26 07:41:04;;;;;;;26.65;23.80;;;32.00;99.90;;;;;;4994136;28;20486;-55
2023/08/26 07:43:30;;;;;;;23.83;20.48;;;32.00;99.90;;;;;;4995443;28;20038;-55
2023/08/26 07:45:56;;;;;;;22.17;17.95;;;32.00;99.90;;;;;;4995198;28;20030;-55
2023/08/26 07:48:22;;;;;;;21.42;19.10;;;32.10;99.90;;;;;;4994888;28;20479;-55
2023/08/26 07:50:48;;;;;;;22.67;20.23;;;32.00;99.90;;;;;;4995364;28;20096;-54
2023/08/26 07:53:14;;;;;;;23.17;20.67;;;32.00;99.90;;;;;;4995123;28;20019;-55
2023/08/26 07:55:40;;;;;;;21.13;18.92;;;32.00;99.90;;;;;;4995038;28;20042;-54
2023/08/26 07:58:06;;;;;;;22.40;19.63;;;32.10;99.90;;;;;;4993743;28;20093;-55
2023/08/26 08:00:31;;;;;;;20.67;18.38;;;32.10;99.90;;;;;;4994959;28;20038;-54
2023/08/26 08:02:57;;;;;;;20.73;18.52;;;32.10;99.90;;;;;;4994885;28;20034;-55
2023/08/26 08:05:23;;;;;;;20.60;18.30;;;32.10;99.90;;;;;;4995050;28;20030;-55
2023/08/26 08:07:49;;;;;;;21.13;17.25;;;32.10;99.90;;;;;;4994916;28;20062;-54
2023/08/26 08:10:15;;;;;;;19.17;17.17;;;32.10;99.90;;;;;;4995223;28;20045;-55
2023/08/26 08:12:41;;;;;;;21.48;19.08;;;32.10;99.90;;;;;;4994752;28;20033;-55
2023/08/26 08:15:08;;;;;;;20.02;17.98;;;32.10;99.90;;;;;;4994753;28;20030;-56
2023/08/26 08:17:34;;;;;;;19.33;17.27;;;32.10;99.90;;;;;;4994626;28;20029;-56
2023/08/26 08:20:00;;;;;;;20.30;18.20;;;32.10;99.90;;;;;;4994429;28;20031;-55
2023/08/26 08:22:41;;;;;;;20.35;18.25;;;32.10;99.90;;;;;;4994325;28;20069;-56
2023/08/26 08:25:08;;;;;;;19.60;17.50;;;32.10;99.90;;;;;;4994349;28;20602;-56
2023/08/26 08:27:35;;;;;;;20.88;17.33;;;32.10;99.90;;;;;;4993127;28;20029;-56
2023/08/26 08:30:02;;;;;;;19.20;17.13;;;32.10;99.90;;;;;;4994320;28;20050;-55
2023/08/26 08:32:28;;;;;;;19.08;16.98;;;32.10;99.90;;;;;;4993058;28;20029;-55
2023/08/26 08:34:54;;;;;;;19.65;17.65;;;32.10;99.90;;;;;;4994284;28;20078;-53
2023/08/26 08:37:20;;;;;;;19.88;17.77;;;32.20;99.90;;;;;;4993145;28;20029;-54
2023/08/26 08:39:47;;;;;;;19.30;17.40;;;32.10;99.90;;;;;;4994152;28;20105;-55
2023/08/26 08:42:16;;;;;;;17.90;16.00;;;32.20;99.90;;;;;;4994091;28;20026;-55
2023/08/26 08:44:44;;;;;;;19.42;17.45;;;32.20;99.90;;;;;;4994215;28;20382;-55
2023/08/26 08:47:10;;;;;;;17.85;15.85;;;32.20;99.90;;;;;;4994111;28;20050;-55
2023/08/26 08:49:37;;;;;;;18.65;16.67;;;32.20;99.90;;;;;;4993974;28;20085;-54
2023/08/26 08:52:04;;;;;;;18.52;16.73;;;32.20;99.90;;;;;;4994048;28;20019;-55
2023/08/26 08:54:32;;;;;;;18.58;16.77;;;32.20;99.90;;;;;;4993948;28;20045;-55
2023/08/26 08:56:59;;;;;;;17.45;15.65;;;32.20;99.90;;;;;;4993948;28;20026;-55
2023/08/26 08:59:29;;;;;;;18.80;16.88;;;32.20;99.90;;;;;;4993721;28;20475;-55
2023/08/26 09:01:57;;;;;;;18.65;16.63;;;32.20;99.90;;;;;;4993180;28;20553;-56
2023/08/26 09:04:24;;;;;;;17.52;15.68;;;32.30;99.90;;;;;;4994047;28;20087;-55
2023/08/26 09:06:51;;;;;;;18.05;16.15;;;32.20;99.90;;;;;;4994008;28;20524;-55
2023/08/26 09:09:18;;;;;;;18.35;16.50;;;32.20;99.90;;;;;;4993546;28;20169;-55
2023/08/26 09:11:44;;;;;;;17.17;15.38;;;32.20;99.90;;;;;;4992456;28;20029;-57
2023/08/26 09:14:09;;;;;;;18.90;15.98;;;32.20;99.90;;;;;;4993624;28;20030;-56
2023/08/26 09:16:37;;;;;;;18.45;16.50;;;32.20;99.90;;;;;;4993560;28;20033;-55
2023/08/26 09:19:06;;;;;;;19.02;16.65;;;32.30;99.90;;;;;;4993525;28;20023;-54
2023/08/26 09:21:32;;;;;;;18.00;16.20;;;32.30;99.90;;;;;;4992259;28;20501;-55
2023/08/26 09:23:59;;;;;;;17.90;16.10;;;32.30;99.90;;;;;;4993590;28;20474;-56
2023/08/26 09:26:24;;;;;;;17.10;15.30;;;32.30;99.90;;;;;;4993664;28;20018;-56
2023/08/26 09:28:51;;;;;;;17.58;15.88;;;32.30;99.90;;;;;;4993424;28;20038;-56
2023/08/26 09:31:17;;;;;;;19.42;16.08;;;32.30;99.90;;;;;;4993327;28;20098;-55
2023/08/26 09:33:59;;;;;;;16.45;14.75;;;32.30;99.90;;;;;;4993408;28;20057;-56
2023/08/26 09:36:39;;;;;;;17.45;15.65;;;32.30;99.90;;;;;;4993462;28;20061;-55
2023/08/26 09:39:13;;;;;;;17.77;15.90;;;32.40;99.90;;;;;;4993373;28;20027;-56
2023/08/26 09:41:42;;;;;;;17.17;15.23;;;32.30;99.90;;;;;;4993131;28;20034;-56
2023/08/26 09:44:12;;;;;;;18.33;16.42;;;32.40;99.90;;;;;;4992033;28;20483;-56
2023/08/26 09:46:40;;;;;;;17.05;15.18;;;32.40;99.90;;;;;;4991884;28;20109;-56
2023/08/26 09:49:06;;;;;;;16.58;14.88;;;32.40;99.90;;;;;;4993041;28;20038;-56
2023/08/26 09:51:32;;;;;;;16.65;14.95;;;32.40;99.90;;;;;;4993039;28;20027;-55
2023/08/26 09:54:00;;;;;;;16.35;14.63;;;32.40;99.90;;;;;;4993143;28;20081;-56
2023/08/26 09:56:27;;;;;;;17.77;15.05;;;32.40;99.90;;;;;;4993464;28;20037;-57
2023/08/26 09:58:55;;;;;;;16.63;14.90;;;32.40;99.90;;;;;;4993166;28;20023;-57
2023/08/26 10:01:22;;;;;;;17.67;15.95;;;32.40;99.90;;;;;;4992809;28;20050;-56
2023/08/26 10:04:04;;;;;;;16.95;15.07;;;32.40;99.90;;;;;;4992975;28;20080;-56
2023/08/26 10:06:34;;;;;;;17.05;15.23;;;32.40;99.90;;;;;;4991575;28;20038;-54
2023/08/26 10:09:24;;;;;;;16.45;14.80;;;32.50;99.90;;;;;;4991645;28;20109;-55
2023/08/26 10:11:54;;;;;;;17.00;14.80;;;32.50;99.90;;;;;;4992826;28;20152;-58
2023/08/26 10:14:24;;;;;;;16.05;14.05;;;32.50;99.90;;;;;;4996766;28;20055;-56
2023/08/26 10:16:52;;;;;;;15.23;13.63;;;32.50;99.90;;;;;;4995675;28;20030;-56
2023/08/26 10:19:19;;;;;;;15.43;13.88;;;32.50;99.90;;;;;;4996747;28;20042;-56
2023/08/26 10:21:45;;;;;;;15.57;14.10;;;32.50;99.90;;;;;;4996795;28;20035;-56
2023/08/26 10:24:11;;;;;;;14.85;13.35;;;32.50;99.90;;;;;;4996845;28;20398;-56
2023/08/26 10:26:37;;;;;;;14.95;13.52;;;32.50;99.90;;;;;;4996665;28;20025;-56
2023/08/26 10:29:03;;;;;;;14.47;13.07;;;32.60;99.90;;;;;;4996624;28;20038;-56
2023/08/26 10:31:36;;;;;;;14.93;13.43;;;32.60;99.90;;;;;;4996647;28;20049;-56
2023/08/26 10:34:08;;;;;;;15.63;13.52;;;32.50;99.90;;;;;;4996839;28;20030;-55
2023/08/26 10:36:35;;;;;;;15.00;13.48;;;32.60;99.90;;;;;;4996441;28;20049;-56
2023/08/26 10:39:02;;;;;;;14.65;13.15;;;32.60;99.90;;;;;;4996355;28;20023;-56
2023/08/26 10:41:29;;;;;;;14.48;13.10;;;32.60;99.90;;;;;;4996668;28;20026;-55
2023/08/26 10:44:01;;;;;;;15.02;13.50;;;32.60;99.90;;;;;;4996557;28;20035;-55
2023/08/26 10:46:54;;;;;;;14.57;13.07;;;32.70;99.90;;;;;;4996432;28;20022;-56
2023/08/26 10:49:28;;;;;;;16.73;12.38;;;32.70;99.90;;;;;;4996307;28;20042;-56
2023/08/26 10:52:18;;;;;;;15.07;12.68;;;32.70;99.90;;;;;;4996315;28;20034;-56
2023/08/26 10:54:45;;;;;;;15.13;13.52;;;32.70;99.90;;;;;;4996237;28;20022;-57
2023/08/26 10:57:12;;;;;;;13.68;12.27;;;32.70;99.90;;;;;;4996055;28;20033;-55
2023/08/26 10:59:41;;;;;;;14.18;12.68;;;32.70;99.90;;;;;;4996191;28;20034;-57
2023/08/26 11:02:09;;;;;;;13.45;11.63;;;32.70;99.90;;;;;;4996072;28;20079;-56
2023/08/26 11:04:45;;;;;;;13.40;11.57;;;32.80;99.90;;;;;;4996079;28;20536;-57
2023/08/26 11:07:18;;;;;;;13.52;12.13;;;32.80;99.90;;;;;;4996034;28;20371;-56
2023/08/26 11:09:45;;;;;;;13.93;12.52;;;32.80;99.90;;;;;;4996073;28;20514;-57
2023/08/26 11:12:28;;;;;;;13.98;11.77;;;32.80;99.90;;;;;;4994836;28;20042;-56
2023/08/26 11:15:06;;;;;;;13.27;11.98;;;32.80;99.90;;;;;;4995821;28;20113;-56
2023/08/26 11:17:32;;;;;;;13.70;12.30;;;32.80;99.90;;;;;;4994240;28;20430;-57
2023/08/26 11:19:59;;;;;;;12.93;11.32;;;32.90;99.90;;;;;;4996041;28;20026;-57
2023/08/26 11:22:29;;;;;;;15.13;11.80;;;32.80;99.90;;;;;;4995605;28;20026;-56
2023/08/26 11:24:55;;;;;;;13.32;11.70;;;32.80;99.90;;;;;;4995061;28;20113;-55
2023/08/26 11:27:21;;;;;;;12.63;11.25;;;32.90;99.90;;;;;;4994348;28;20030;-55
2023/08/26 11:29:46;;;;;;;12.75;11.15;;;32.90;99.90;;;;;;4995401;28;20034;-54
2023/08/26 11:32:12;;;;;;;13.98;12.07;;;32.90;99.90;;;;;;4995591;28;20101;-55
2023/08/26 11:34:38;;;;;;;12.60;11.18;;;32.90;99.90;;;;;;4995544;28;20022;-55
2023/08/26 11:37:05;;;;;;;12.70;10.63;;;32.90;99.90;;;;;;4995276;28;20034;-56
2023/08/26 11:39:33;;;;;;;11.65;10.20;;;32.90;99.90;;;;;;4995607;28;20470;-55
2023/08/26 11:41:59;;;;;;;13.27;10.65;;;32.90;99.90;;;;;;4995477;28;20548;-55
2023/08/26 11:44:26;;;;;;;11.40;10.20;;;32.90;99.90;;;;;;4995354;28;20121;-55
2023/08/26 11:46:55;;;;;;;11.60;10.27;;;33.00;99.90;;;;;;4995201;28;20019;-55
2023/08/26 11:49:22;;;;;;;13.95;11.15;;;33.00;99.90;;;;;;4993865;28;20268;-55
2023/08/26 11:51:48;;;;;;;11.70;10.35;;;33.00;99.90;;;;;;4995340;28;20100;-56
2023/08/26 11:54:24;;;;;;;11.57;10.20;;;32.90;99.90;;;;;;4995218;28;20026;-55
2023/08/26 11:56:50;;;;;;;10.05;9.05;;;33.00;99.90;;;;;;4993796;28;20534;-55
2023/08/26 11:59:22;;;;;;;10.60;9.57;;;33.00;99.90;;;;;;4994943;28;20628;-55
2023/08/26 12:01:48;;;;;;;10.30;9.30;;;33.00;99.90;;;;;;4994711;28;20046;-55
2023/08/26 12:04:18;;;;;;;10.50;9.40;;;33.00;99.90;;;;;;4994944;28;20018;-55
2023/08/26 12:06:44;;;;;;;11.63;9.70;;;33.10;99.90;;;;;;4993665;28;20050;-54
2023/08/26 12:09:12;;;;;;;10.32;9.32;;;33.10;99.90;;;;;;4994677;28;20077;-54
2023/08/26 12:11:42;;;;;;;12.05;9.52;;;33.00;99.90;;;;;;4993496;28;20022;-56
2023/08/26 12:14:21;;;;;;;11.52;9.50;;;33.00;99.90;;;;;;4994942;28;20026;-55
2023/08/26 12:16:47;;;;;;;11.75;10.35;;;33.10;99.90;;;;;;4994622;28;20023;-56
2023/08/26 12:19:16;;;;;;;10.07;9.07;;;33.10;99.90;;;;;;4994610;28;20028;-56
2023/08/26 12:21:42;;;;;;;12.10;9.95;;;33.10;99.90;;;;;;4994702;28;20073;-55
2023/08/26 12:24:09;;;;;;;12.77;10.07;;;33.10;99.90;;;;;;4994561;28;20403;-54
2023/08/26 12:26:38;;;;;;;10.57;9.48;;;33.10;99.90;;;;;;4994630;28;20026;-55
2023/08/26 12:29:04;;;;;;;11.60;10.40;;;33.20;99.90;;;;;;4994526;28;20031;-56
2023/08/26 12:31:34;;;;;;;10.20;9.25;;;33.20;99.90;;;;;;4994524;28;20077;-55